Strona główna
METAR-TAF:

METAR-TAF

Lotnisko :

Port lotniczy Malakka

Malakka, Malezja

Szerokość geograficzna: 02-16N, Długość geograficzna: 102-15E, wysokość: 11 m

Aktualna obserwacja pogody

Raport powstał 35 minut temu, godzina 03:00 UTC
Wiatr 6 kt z kierunków zmiennych
Temperatura 28°C
Wilgotność 74%
Ciśnienie 1013 hPa
Widzialność 10 km lub więcej
Mało chmury na wysokości 1900 ft

METAR: WMKM 100300Z VRB06KT 9999 FEW019 28/23 Q1013

czas: 11:35 (03:35 UTC)

Prognoza

Raport powstał 4 godziny i 35 minut temu, godzina 23:00 UTC
Prognoza ważna od 10 godzina 00 UTC do 11 godzina 00 UTC
Wiatr 6 kt od północny wschód
Widzialność: 9000 m
Mało chmury na wysokości 3000 ft
Przejściowo
od 10 godzina 10 UTC do 10 godzina 14 UTC
Widzialność: 4000 m
Mało chmury na wysokości 1000 ft
Mało chmury na wysokości 1700 ft, Cumulonimbus.
Rozproszone chmury na wysokości 2000 ft
burza, deszcz

TAF: WMKM 092300Z 1000/1100 05006KT 9000 FEW030 TEMPO 1010/1014 4000 TSRA FEW010 FEW017CB SCT020

Obserwacja i prognoza pogody dla ponad 4000 lotnisk (raport METAR i TAF).

Dostępne stacje oznaczono żółtymi i czerwonymi punktami na mapie.

Najedź kursorem aby zobaczyć nazwę stacji.

Kliknij aby zobaczyć obserwacje i prognozy pogody.

Aby zmienić mapę: kliknij na zielony przycisk z czarnym krzyżykiem, aby powiększyć; na zielony przycisk z myślnikiem, aby pomniejszyć; na zielone strzałki, aby przejść do map sąsiednich.


METAR-TAF: